Weather at Hohenthann

Public forecast

Using degrees Celsius for public forecast. Weather courtesy of forecast.io.

Closest aviation weather report (METAR) to Hohenthann

Closest report is Ingolstadt Manching Airport, 20.8 nm (38.6 km) W. Retrieved 2022/07/01 15:43 UTC (32 minutes ago):

ETSI 011543Z 28003KT 9999 SCT015 BKN020 BKN120 15/12 Q1022 WHT

Closest aviation forecast (TAF) to Hohenthann

Forecast is more than 12 hours old.

Closest forecast is Ingolstadt Manching Airport, 20.8 nm (38.6 km) W. Retrieved 2022/05/09 14:27 UTC (2 months ago):

TAF ETSI 091315Z 0914/1013 CNL 1315